sensor_id;sensor_type;location;lat;lon;timestamp;temperature;humidity
16907;DHT22;8570;52.380;4.654;2022-11-09T00:00:34;12.40;99.90
16907;DHT22;8570;52.380;4.654;2022-11-09T00:05:38;12.40;99.90
16907;DHT22;8570;52.380;4.654;2022-11-09T00:10:40;12.40;99.90
16907;DHT22;8570;52.380;4.654;2022-11-09T00:15:42;12.40;99.90
16907;DHT22;8570;52.380;4.654;2022-11-09T00:20:46;12.40;99.90
16907;DHT22;8570;52.380;4.654;2022-11-09T00:25:48;12.40;99.90
16907;DHT22;8570;52.380;4.654;2022-11-09T00:30:50;12.30;99.90
16907;DHT22;8570;52.380;4.654;2022-11-09T00:35:54;12.30;99.90
16907;DHT22;8570;52.380;4.654;2022-11-09T00:40:59;12.30;99.90
16907;DHT22;8570;52.380;4.654;2022-11-09T00:46:01;12.30;99.90
16907;DHT22;8570;52.380;4.654;2022-11-09T00:51:05;12.30;99.90
16907;DHT22;8570;52.380;4.654;2022-11-09T00:56:11;12.20;99.90
16907;DHT22;8570;52.380;4.654;2022-11-09T01:01:14;12.20;99.90
16907;DHT22;8570;52.380;4.654;2022-11-09T01:06:21;12.20;99.90
16907;DHT22;8570;52.380;4.654;2022-11-09T01:11:23;12.20;99.90
16907;DHT22;8570;52.380;4.654;2022-11-09T01:16:26;12.20;99.90
16907;DHT22;8570;52.380;4.654;2022-11-09T01:21:29;12.20;99.90
16907;DHT22;8570;52.380;4.654;2022-11-09T01:26:31;12.20;99.90
16907;DHT22;8570;52.380;4.654;2022-11-09T01:31:33;12.20;99.90
16907;DHT22;8570;52.380;4.654;2022-11-09T01:36:36;12.20;99.90
16907;DHT22;8570;52.380;4.654;2022-11-09T01:41:38;12.20;99.90
16907;DHT22;8570;52.380;4.654;2022-11-09T01:46:45;12.20;99.90
16907;DHT22;8570;52.380;4.654;2022-11-09T01:51:52;12.20;99.90
16907;DHT22;8570;52.380;4.654;2022-11-09T01:56:58;12.20;99.90
16907;DHT22;8570;52.380;4.654;2022-11-09T02:02:01;12.20;99.90
16907;DHT22;8570;52.380;4.654;2022-11-09T02:07:06;12.20;99.90
16907;DHT22;8570;52.380;4.654;2022-11-09T02:12:09;12.20;99.90
16907;DHT22;8570;52.380;4.654;2022-11-09T02:17:11;12.20;99.90
16907;DHT22;8570;52.380;4.654;2022-11-09T02:22:14;12.20;99.90
16907;DHT22;8570;52.380;4.654;2022-11-09T02:27:16;12.20;99.90
16907;DHT22;8570;52.380;4.654;2022-11-09T02:32:20;12.20;99.90
16907;DHT22;8570;52.380;4.654;2022-11-09T02:37:29;12.20;99.90
16907;DHT22;8570;52.380;4.654;2022-11-09T02:42:31;12.20;99.90
16907;DHT22;8570;52.380;4.654;2022-11-09T02:47:33;12.20;99.90
16907;DHT22;8570;52.380;4.654;2022-11-09T02:52:37;12.20;99.90
16907;DHT22;8570;52.380;4.654;2022-11-09T02:57:39;12.20;99.90
16907;DHT22;8570;52.380;4.654;2022-11-09T03:02:41;12.20;99.90
16907;DHT22;8570;52.380;4.654;2022-11-09T03:07:44;12.20;99.90
16907;DHT22;8570;52.380;4.654;2022-11-09T03:12:46;12.20;99.90
16907;DHT22;8570;52.380;4.654;2022-11-09T03:17:48;12.20;99.90
16907;DHT22;8570;52.380;4.654;2022-11-09T03:22:52;12.20;99.90
16907;DHT22;8570;52.380;4.654;2022-11-09T03:27:57;12.20;99.90
16907;DHT22;8570;52.380;4.654;2022-11-09T03:33:01;12.20;99.90
16907;DHT22;8570;52.380;4.654;2022-11-09T03:38:05;12.20;99.90
16907;DHT22;8570;52.380;4.654;2022-11-09T03:43:07;12.10;99.90
16907;DHT22;8570;52.380;4.654;2022-11-09T03:48:09;12.10;99.90
16907;DHT22;8570;52.380;4.654;2022-11-09T03:53:12;12.10;99.90
16907;DHT22;8570;52.380;4.654;2022-11-09T03:58:14;12.10;99.90
16907;DHT22;8570;52.380;4.654;2022-11-09T04:03:16;12.10;99.90
16907;DHT22;8570;52.380;4.654;2022-11-09T04:08:19;12.00;99.90
16907;DHT22;8570;52.380;4.654;2022-11-09T04:13:21;12.10;99.90
16907;DHT22;8570;52.380;4.654;2022-11-09T04:18:23;12.10;99.90
16907;DHT22;8570;52.380;4.654;2022-11-09T04:23:26;12.10;99.90
16907;DHT22;8570;52.380;4.654;2022-11-09T04:28:28;12.10;99.90
16907;DHT22;8570;52.380;4.654;2022-11-09T04:33:30;12.10;99.90
16907;DHT22;8570;52.380;4.654;2022-11-09T04:38:34;12.00;99.90
16907;DHT22;8570;52.380;4.654;2022-11-09T04:43:36;11.90;99.90
16907;DHT22;8570;52.380;4.654;2022-11-09T04:48:38;11.80;99.90
16907;DHT22;8570;52.380;4.654;2022-11-09T04:53:41;11.70;99.90
16907;DHT22;8570;52.380;4.654;2022-11-09T04:58:43;11.70;99.90
16907;DHT22;8570;52.380;4.654;2022-11-09T05:03:45;11.60;99.90
16907;DHT22;8570;52.380;4.654;2022-11-09T05:08:48;11.60;99.90
16907;DHT22;8570;52.380;4.654;2022-11-09T05:13:50;11.60;99.90
16907;DHT22;8570;52.380;4.654;2022-11-09T05:18:52;11.50;99.90
16907;DHT22;8570;52.380;4.654;2022-11-09T05:23:55;11.50;99.90
16907;DHT22;8570;52.380;4.654;2022-11-09T05:29:02;11.50;99.90
16907;DHT22;8570;52.380;4.654;2022-11-09T05:34:05;11.50;99.90
16907;DHT22;8570;52.380;4.654;2022-11-09T05:39:08;11.50;99.90
16907;DHT22;8570;52.380;4.654;2022-11-09T05:44:10;11.50;99.90
16907;DHT22;8570;52.380;4.654;2022-11-09T05:49:12;11.50;99.90
16907;DHT22;8570;52.380;4.654;2022-11-09T05:54:15;11.40;99.90
16907;DHT22;8570;52.380;4.654;2022-11-09T05:59:17;11.40;99.90
16907;DHT22;8570;52.380;4.654;2022-11-09T06:04:19;11.40;99.90
16907;DHT22;8570;52.380;4.654;2022-11-09T06:09:23;11.40;99.90
16907;DHT22;8570;52.380;4.654;2022-11-09T06:14:24;11.40;99.90
16907;DHT22;8570;52.380;4.654;2022-11-09T06:19:26;11.40;99.90
16907;DHT22;8570;52.380;4.654;2022-11-09T06:24:29;11.30;99.90
16907;DHT22;8570;52.380;4.654;2022-11-09T06:29:31;11.30;99.90
16907;DHT22;8570;52.380;4.654;2022-11-09T06:34:33;11.30;99.90
16907;DHT22;8570;52.380;4.654;2022-11-09T06:39:37;11.30;99.90
16907;DHT22;8570;52.380;4.654;2022-11-09T06:44:38;11.30;99.90
16907;DHT22;8570;52.380;4.654;2022-11-09T06:49:41;11.20;99.90
16907;DHT22;8570;52.380;4.654;2022-11-09T06:54:44;11.20;99.90
16907;DHT22;8570;52.380;4.654;2022-11-09T06:59:46;11.60;99.90
16907;DHT22;8570;52.380;4.654;2022-11-09T07:04:50;11.70;99.90
16907;DHT22;8570;52.380;4.654;2022-11-09T07:09:54;11.60;99.90
16907;DHT22;8570;52.380;4.654;2022-11-09T07:14:56;11.50;99.90
16907;DHT22;8570;52.380;4.654;2022-11-09T07:19:58;11.40;99.90
16907;DHT22;8570;52.380;4.654;2022-11-09T07:25:02;11.40;99.90
16907;DHT22;8570;52.380;4.654;2022-11-09T07:30:04;11.30;99.90
16907;DHT22;8570;52.380;4.654;2022-11-09T07:35:07;11.30;99.90
16907;DHT22;8570;52.380;4.654;2022-11-09T07:40:12;11.30;99.90
16907;DHT22;8570;52.380;4.654;2022-11-09T07:45:14;11.30;99.90
16907;DHT22;8570;52.380;4.654;2022-11-09T07:50:16;11.30;99.90
16907;DHT22;8570;52.380;4.654;2022-11-09T07:55:19;11.30;99.90
16907;DHT22;8570;52.380;4.654;2022-11-09T08:00:21;11.40;99.90
16907;DHT22;8570;52.380;4.654;2022-11-09T08:05:23;11.40;99.90
16907;DHT22;8570;52.380;4.654;2022-11-09T08:10:28;11.40;99.90
16907;DHT22;8570;52.380;4.654;2022-11-09T08:15:30;11.40;99.90
16907;DHT22;8570;52.380;4.654;2022-11-09T08:20:33;11.50;99.90
16907;DHT22;8570;52.380;4.654;2022-11-09T08:25:36;11.50;99.90
16907;DHT22;8570;52.380;4.654;2022-11-09T08:30:38;11.60;99.90
16907;DHT22;8570;52.380;4.654;2022-11-09T08:35:40;11.70;99.90
16907;DHT22;8570;52.380;4.654;2022-11-09T08:40:43;11.80;99.90
16907;DHT22;8570;52.380;4.654;2022-11-09T08:45:46;11.80;99.90
16907;DHT22;8570;52.380;4.654;2022-11-09T08:50:51;11.90;99.90
16907;DHT22;8570;52.380;4.654;2022-11-09T08:55:55;12.00;99.90
16907;DHT22;8570;52.380;4.654;2022-11-09T09:00:57;12.00;99.90
16907;DHT22;8570;52.380;4.654;2022-11-09T09:06:02;12.10;99.90
16907;DHT22;8570;52.380;4.654;2022-11-09T09:11:05;12.10;99.90
16907;DHT22;8570;52.380;4.654;2022-11-09T09:16:09;12.20;99.90
16907;DHT22;8570;52.380;4.654;2022-11-09T09:21:11;12.30;99.90
16907;DHT22;8570;52.380;4.654;2022-11-09T09:26:14;12.50;99.90
16907;DHT22;8570;52.380;4.654;2022-11-09T09:31:16;12.70;99.90
16907;DHT22;8570;52.380;4.654;2022-11-09T09:36:19;13.00;99.90
16907;DHT22;8570;52.380;4.654;2022-11-09T09:41:27;13.10;99.90
16907;DHT22;8570;52.380;4.654;2022-11-09T09:46:39;13.20;99.90
16907;DHT22;8570;52.380;4.654;2022-11-09T09:51:46;13.30;99.90
16907;DHT22;8570;52.380;4.654;2022-11-09T09:56:57;13.20;99.90
16907;DHT22;8570;52.380;4.654;2022-11-09T10:02:00;13.10;99.90
16907;DHT22;8570;52.380;4.654;2022-11-09T10:07:09;13.00;99.90
16907;DHT22;8570;52.380;4.654;2022-11-09T10:12:21;12.80;99.90
16907;DHT22;8570;52.380;4.654;2022-11-09T10:17:33;12.70;99.90
16907;DHT22;8570;52.380;4.654;2022-11-09T10:22:46;12.60;99.90
16907;DHT22;8570;52.380;4.654;2022-11-09T10:27:52;12.60;99.90
16907;DHT22;8570;52.380;4.654;2022-11-09T10:32:56;12.50;99.90
16907;DHT22;8570;52.380;4.654;2022-11-09T10:38:00;12.50;99.90
16907;DHT22;8570;52.380;4.654;2022-11-09T10:43:09;12.60;99.90
16907;DHT22;8570;52.380;4.654;2022-11-09T10:48:12;12.60;99.90
16907;DHT22;8570;52.380;4.654;2022-11-09T10:53:16;12.50;99.90
16907;DHT22;8570;52.380;4.654;2022-11-09T10:58:33;12.60;99.90
16907;DHT22;8570;52.380;4.654;2022-11-09T11:03:36;12.60;99.90
16907;DHT22;8570;52.380;4.654;2022-11-09T11:08:40;12.50;99.90
16907;DHT22;8570;52.380;4.654;2022-11-09T11:13:44;12.50;99.90
16907;DHT22;8570;52.380;4.654;2022-11-09T11:18:47;12.50;99.90
16907;DHT22;8570;52.380;4.654;2022-11-09T11:24:13;12.40;99.90
16907;DHT22;8570;52.380;4.654;2022-11-09T11:29:45;12.30;99.90
16907;DHT22;8570;52.380;4.654;2022-11-09T11:34:48;12.30;99.90
16907;DHT22;8570;52.380;4.654;2022-11-09T11:39:58;12.30;99.90
16907;DHT22;8570;52.380;4.654;2022-11-09T11:45:13;12.30;99.90
16907;DHT22;8570;52.380;4.654;2022-11-09T11:50:37;12.30;99.90
16907;DHT22;8570;52.380;4.654;2022-11-09T11:55:55;12.40;99.90
16907;DHT22;8570;52.380;4.654;2022-11-09T12:01:09;12.50;99.90
16907;DHT22;8570;52.380;4.654;2022-11-09T12:06:20;12.60;99.90
16907;DHT22;8570;52.380;4.654;2022-11-09T12:11:34;12.70;99.90
16907;DHT22;8570;52.380;4.654;2022-11-09T12:16:45;12.70;99.90
16907;DHT22;8570;52.380;4.654;2022-11-09T12:21:53;12.80;99.90
16907;DHT22;8570;52.380;4.654;2022-11-09T12:27:06;12.90;99.90
16907;DHT22;8570;52.380;4.654;2022-11-09T12:32:21;13.00;99.90
16907;DHT22;8570;52.380;4.654;2022-11-09T12:37:28;13.00;99.90
16907;DHT22;8570;52.380;4.654;2022-11-09T12:42:34;13.00;99.90
16907;DHT22;8570;52.380;4.654;2022-11-09T12:47:42;13.00;99.90
16907;DHT22;8570;52.380;4.654;2022-11-09T12:52:47;12.90;99.90
16907;DHT22;8570;52.380;4.654;2022-11-09T12:57:50;12.80;99.90
16907;DHT22;8570;52.380;4.654;2022-11-09T13:02:56;12.80;99.90
16907;DHT22;8570;52.380;4.654;2022-11-09T13:08:00;12.70;99.90
16907;DHT22;8570;52.380;4.654;2022-11-09T13:13:17;12.60;99.90
16907;DHT22;8570;52.380;4.654;2022-11-09T13:18:25;12.50;99.90
16907;DHT22;8570;52.380;4.654;2022-11-09T13:23:47;12.50;99.90
16907;DHT22;8570;52.380;4.654;2022-11-09T13:29:07;12.60;99.90
16907;DHT22;8570;52.380;4.654;2022-11-09T13:34:39;12.60;99.90
16907;DHT22;8570;52.380;4.654;2022-11-09T13:39:42;12.70;99.90
16907;DHT22;8570;52.380;4.654;2022-11-09T13:44:44;12.60;99.90
16907;DHT22;8570;52.380;4.654;2022-11-09T13:49:56;12.60;99.90
16907;DHT22;8570;52.380;4.654;2022-11-09T13:54:58;12.50;99.90
16907;DHT22;8570;52.380;4.654;2022-11-09T14:00:02;12.50;99.90
16907;DHT22;8570;52.380;4.654;2022-11-09T14:05:29;12.40;99.90
16907;DHT22;8570;52.380;4.654;2022-11-09T14:10:45;12.30;99.90
16907;DHT22;8570;52.380;4.654;2022-11-09T14:15:55;12.20;99.90
16907;DHT22;8570;52.380;4.654;2022-11-09T14:21:06;12.20;99.90
16907;DHT22;8570;52.380;4.654;2022-11-09T14:26:16;12.20;99.90
16907;DHT22;8570;52.380;4.654;2022-11-09T14:31:24;12.20;99.90
16907;DHT22;8570;52.380;4.654;2022-11-09T14:36:29;12.20;99.90
16907;DHT22;8570;52.380;4.654;2022-11-09T14:41:32;12.30;99.90
16907;DHT22;8570;52.380;4.654;2022-11-09T14:46:34;12.30;99.90
16907;DHT22;8570;52.380;4.654;2022-11-09T14:51:38;12.30;99.90
16907;DHT22;8570;52.380;4.654;2022-11-09T14:56:42;12.30;99.90
16907;DHT22;8570;52.380;4.654;2022-11-09T15:02:01;12.20;99.90
16907;DHT22;8570;52.380;4.654;2022-11-09T15:07:16;12.20;99.90
16907;DHT22;8570;52.380;4.654;2022-11-09T15:12:24;12.30;99.90
16907;DHT22;8570;52.380;4.654;2022-11-09T15:17:31;12.30;99.90
16907;DHT22;8570;52.380;4.654;2022-11-09T15:22:52;12.30;99.90
16907;DHT22;8570;52.380;4.654;2022-11-09T15:27:59;12.40;99.90
16907;DHT22;8570;52.380;4.654;2022-11-09T15:33:15;12.40;99.90
16907;DHT22;8570;52.380;4.654;2022-11-09T15:38:34;12.40;99.90
16907;DHT22;8570;52.380;4.654;2022-11-09T15:43:39;12.50;99.90
16907;DHT22;8570;52.380;4.654;2022-11-09T15:48:43;12.40;99.90
16907;DHT22;8570;52.380;4.654;2022-11-09T15:53:47;12.50;99.90
16907;DHT22;8570;52.380;4.654;2022-11-09T15:58:53;12.40;99.90
16907;DHT22;8570;52.380;4.654;2022-11-09T16:03:55;12.40;99.90
16907;DHT22;8570;52.380;4.654;2022-11-09T16:08:59;12.40;99.90
16907;DHT22;8570;52.380;4.654;2022-11-09T16:14:02;12.40;99.90
16907;DHT22;8570;52.380;4.654;2022-11-09T16:19:04;12.40;99.90
16907;DHT22;8570;52.380;4.654;2022-11-09T16:24:09;12.40;99.90
16907;DHT22;8570;52.380;4.654;2022-11-09T16:29:11;12.40;99.90
16907;DHT22;8570;52.380;4.654;2022-11-09T16:34:17;12.40;99.90
16907;DHT22;8570;52.380;4.654;2022-11-09T16:39:20;12.40;99.90
16907;DHT22;8570;52.380;4.654;2022-11-09T16:44:23;12.40;99.90
16907;DHT22;8570;52.380;4.654;2022-11-09T16:49:27;12.40;99.90
16907;DHT22;8570;52.380;4.654;2022-11-09T16:54:34;12.40;99.90
16907;DHT22;8570;52.380;4.654;2022-11-09T16:59:39;12.40;99.90
16907;DHT22;8570;52.380;4.654;2022-11-09T17:04:44;12.50;99.90
16907;DHT22;8570;52.380;4.654;2022-11-09T17:09:50;12.50;99.90
16907;DHT22;8570;52.380;4.654;2022-11-09T17:14:54;12.50;99.90
16907;DHT22;8570;52.380;4.654;2022-11-09T17:19:55;12.60;99.90
16907;DHT22;8570;52.380;4.654;2022-11-09T17:25:06;12.60;99.90
16907;DHT22;8570;52.380;4.654;2022-11-09T17:30:11;12.60;99.90
16907;DHT22;8570;52.380;4.654;2022-11-09T17:35:18;12.60;99.90
16907;DHT22;8570;52.380;4.654;2022-11-09T17:40:21;12.60;99.90
16907;DHT22;8570;52.380;4.654;2022-11-09T17:45:23;12.60;99.90
16907;DHT22;8570;52.380;4.654;2022-11-09T17:50:25;12.60;99.90
16907;DHT22;8570;52.380;4.654;2022-11-09T17:55:28;12.60;99.90
16907;DHT22;8570;52.380;4.654;2022-11-09T18:00:33;12.60;99.90
16907;DHT22;8570;52.380;4.654;2022-11-09T18:05:36;12.60;99.90
16907;DHT22;8570;52.380;4.654;2022-11-09T18:10:41;12.60;99.90
16907;DHT22;8570;52.380;4.654;2022-11-09T18:15:45;12.60;99.90
16907;DHT22;8570;52.380;4.654;2022-11-09T18:20:46;12.60;99.90
16907;DHT22;8570;52.380;4.654;2022-11-09T18:25:56;12.60;99.90
16907;DHT22;8570;52.380;4.654;2022-11-09T18:30:59;12.60;99.90
16907;DHT22;8570;52.380;4.654;2022-11-09T18:36:04;12.60;99.90
16907;DHT22;8570;52.380;4.654;2022-11-09T18:41:12;12.60;99.90
16907;DHT22;8570;52.380;4.654;2022-11-09T18:46:16;12.60;99.90
16907;DHT22;8570;52.380;4.654;2022-11-09T18:51:18;12.70;99.90
16907;DHT22;8570;52.380;4.654;2022-11-09T18:56:23;12.60;99.90
16907;DHT22;8570;52.380;4.654;2022-11-09T19:01:25;12.60;99.90
16907;DHT22;8570;52.380;4.654;2022-11-09T19:06:28;12.60;99.90
16907;DHT22;8570;52.380;4.654;2022-11-09T19:11:31;12.60;99.90
16907;DHT22;8570;52.380;4.654;2022-11-09T19:16:33;12.60;99.90
16907;DHT22;8570;52.380;4.654;2022-11-09T19:21:38;12.70;99.90
16907;DHT22;8570;52.380;4.654;2022-11-09T19:26:46;12.70;99.90
16907;DHT22;8570;52.380;4.654;2022-11-09T19:31:49;12.70;99.90
16907;DHT22;8570;52.380;4.654;2022-11-09T19:36:51;12.70;99.90
16907;DHT22;8570;52.380;4.654;2022-11-09T19:41:54;12.70;99.90
16907;DHT22;8570;52.380;4.654;2022-11-09T19:46:57;12.70;99.90
16907;DHT22;8570;52.380;4.654;2022-11-09T19:52:01;12.70;99.90
16907;DHT22;8570;52.380;4.654;2022-11-09T19:57:05;12.70;99.90
16907;DHT22;8570;52.380;4.654;2022-11-09T20:02:08;12.70;99.90
16907;DHT22;8570;52.380;4.654;2022-11-09T20:07:10;12.70;99.90
16907;DHT22;8570;52.380;4.654;2022-11-09T20:12:13;12.60;99.90
16907;DHT22;8570;52.380;4.654;2022-11-09T20:17:35;12.70;99.90
16907;DHT22;8570;52.380;4.654;2022-11-09T20:22:37;12.60;99.90
16907;DHT22;8570;52.380;4.654;2022-11-09T20:27:41;12.60;99.90
16907;DHT22;8570;52.380;4.654;2022-11-09T20:32:43;12.60;99.90
16907;DHT22;8570;52.380;4.654;2022-11-09T20:37:45;12.60;99.90
16907;DHT22;8570;52.380;4.654;2022-11-09T20:42:48;12.60;99.90
16907;DHT22;8570;52.380;4.654;2022-11-09T20:47:50;12.60;99.90
16907;DHT22;8570;52.380;4.654;2022-11-09T20:52:52;12.70;99.90
16907;DHT22;8570;52.380;4.654;2022-11-09T20:57:56;12.70;99.90
16907;DHT22;8570;52.380;4.654;2022-11-09T21:02:58;12.60;99.90
16907;DHT22;8570;52.380;4.654;2022-11-09T21:08:00;12.70;99.90
16907;DHT22;8570;52.380;4.654;2022-11-09T21:13:04;12.60;99.90
16907;DHT22;8570;52.380;4.654;2022-11-09T21:18:06;12.70;99.90
16907;DHT22;8570;52.380;4.654;2022-11-09T21:23:09;12.80;99.90
16907;DHT22;8570;52.380;4.654;2022-11-09T21:28:29;12.70;99.90
16907;DHT22;8570;52.380;4.654;2022-11-09T21:33:51;12.70;99.90
16907;DHT22;8570;52.380;4.654;2022-11-09T21:38:53;12.60;99.90
16907;DHT22;8570;52.380;4.654;2022-11-09T21:43:56;12.60;99.90
16907;DHT22;8570;52.380;4.654;2022-11-09T21:48:58;12.60;99.90
16907;DHT22;8570;52.380;4.654;2022-11-09T21:54:00;12.60;99.90
16907;DHT22;8570;52.380;4.654;2022-11-09T21:59:04;12.60;99.90
16907;DHT22;8570;52.380;4.654;2022-11-09T22:04:07;12.60;99.90
16907;DHT22;8570;52.380;4.654;2022-11-09T22:09:12;12.60;99.90
16907;DHT22;8570;52.380;4.654;2022-11-09T22:14:18;12.60;99.90
16907;DHT22;8570;52.380;4.654;2022-11-09T22:19:38;12.50;99.90
16907;DHT22;8570;52.380;4.654;2022-11-09T22:24:57;12.60;99.90
16907;DHT22;8570;52.380;4.654;2022-11-09T22:30:00;12.50;99.90
16907;DHT22;8570;52.380;4.654;2022-11-09T22:35:03;12.50;99.90
16907;DHT22;8570;52.380;4.654;2022-11-09T22:40:06;12.60;99.90
16907;DHT22;8570;52.380;4.654;2022-11-09T22:45:12;12.60;99.90
16907;DHT22;8570;52.380;4.654;2022-11-09T22:50:14;12.60;99.90
16907;DHT22;8570;52.380;4.654;2022-11-09T22:55:16;12.60;99.90
16907;DHT22;8570;52.380;4.654;2022-11-09T23:00:20;12.60;99.90
16907;DHT22;8570;52.380;4.654;2022-11-09T23:05:22;12.60;99.90
16907;DHT22;8570;52.380;4.654;2022-11-09T23:10:24;12.60;99.90
16907;DHT22;8570;52.380;4.654;2022-11-09T23:15:27;12.70;99.90
16907;DHT22;8570;52.380;4.654;2022-11-09T23:20:31;12.70;99.90
16907;DHT22;8570;52.380;4.654;2022-11-09T23:25:34;12.70;99.90
16907;DHT22;8570;52.380;4.654;2022-11-09T23:30:58;12.70;99.90
16907;DHT22;8570;52.380;4.654;2022-11-09T23:36:02;12.70;99.90
16907;DHT22;8570;52.380;4.654;2022-11-09T23:41:05;12.60;99.90
16907;DHT22;8570;52.380;4.654;2022-11-09T23:46:10;12.60;99.90
16907;DHT22;8570;52.380;4.654;2022-11-09T23:51:12;12.60;99.90
16907;DHT22;8570;52.380;4.654;2022-11-09T23:56:14;12.60;99.90
